« GIFU AIR FESTIVAL 2014 【飛行編2】 岐阜飛行場 2014/11/23 sun | トップページ | 夕暮れ 成田国際空港 2014/11/28 fri »

2014/11/29

あ、スコット 百里飛行場 2014/11/28 fri

スコットと言えばサンダーバード1号。今日は、通りすがりに百里に寄ってみた。残念ながら格納庫は閉まっていて、お休みの日のようでした。

RJAH 280400Z 01003KT 330V030 9999 FEW025 BKN045 15/09 Q1022

20141128_rjah_01ex876412

ex87-6412 RF-4EJ

茨城空港のゲートガードは、大分白っぽくなってきている。

20141128_rjah_02u123018

12-3018 U-125A

唯一ゲットできた、アスコット

20141128_rjah_03ex378319

ex37-8319 F-4EJk

|

« GIFU AIR FESTIVAL 2014 【飛行編2】 岐阜飛行場 2014/11/23 sun | トップページ | 夕暮れ 成田国際空港 2014/11/28 fri »

百里飛行場」カテゴリの記事

コメント

コメントを書く



(ウェブ上には掲載しません)


コメントは記事投稿者が公開するまで表示されません。



トラックバック


この記事へのトラックバック一覧です: あ、スコット 百里飛行場 2014/11/28 fri:

« GIFU AIR FESTIVAL 2014 【飛行編2】 岐阜飛行場 2014/11/23 sun | トップページ | 夕暮れ 成田国際空港 2014/11/28 fri »